createdAt,value
2018-08-18T00:00:01.167Z,9.83
2018-08-18T00:02:38.894Z,9.93
2018-08-18T00:05:12.812Z,12.43
2018-08-18T00:07:45.798Z,17.23
2018-08-18T00:10:25.253Z,14.77
2018-08-18T00:12:57.624Z,15.83
2018-08-18T00:15:29.815Z,18.83
2018-08-18T00:18:04.098Z,17.93
2018-08-18T00:20:36.626Z,19.43
2018-08-18T00:23:12.271Z,26.00
2018-08-18T00:25:54.960Z,33.10
2018-08-18T00:28:29.443Z,32.60
2018-08-18T00:31:02.435Z,28.37
2018-08-18T00:33:42.707Z,27.63
2018-08-18T00:36:16.115Z,26.50
2018-08-18T00:38:48.767Z,32.80
2018-08-18T00:41:21.097Z,28.70
2018-08-18T00:43:55.083Z,28.73
2018-08-18T00:46:29.378Z,27.70
2018-08-18T00:49:01.790Z,25.90
2018-08-18T00:51:36.707Z,24.33
2018-08-18T00:54:11.089Z,26.23
2018-08-18T00:56:44.482Z,26.57
2018-08-18T00:59:17.319Z,27.83
2018-08-18T01:01:49.490Z,24.40
2018-08-18T01:04:22.137Z,30.17
2018-08-18T01:06:54.520Z,26.70
2018-08-18T01:09:26.720Z,25.80
2018-08-18T01:11:59.613Z,24.60
2018-08-18T01:14:32.776Z,22.17
2018-08-18T01:17:05.025Z,19.63
2018-08-18T01:19:37.202Z,13.93
2018-08-18T01:22:12.081Z,15.13
2018-08-18T01:24:44.883Z,13.33
2018-08-18T01:27:18.710Z,18.73
2018-08-18T01:29:55.718Z,15.73
2018-08-18T01:32:28.044Z,16.70
2018-08-18T01:35:00.814Z,16.50
2018-08-18T01:37:34.346Z,18.77
2018-08-18T01:40:06.264Z,16.67
2018-08-18T01:42:39.790Z,20.63
2018-08-18T01:45:13.520Z,25.67
2018-08-18T01:47:45.697Z,22.37
2018-08-18T01:50:21.116Z,20.37
2018-08-18T01:52:53.128Z,19.50
2018-08-18T01:55:25.341Z,24.67
2018-08-18T01:57:57.467Z,23.70
2018-08-18T02:00:30.271Z,23.53
2018-08-18T02:03:03.264Z,29.10
2018-08-18T02:05:35.609Z,26.73
2018-08-18T02:08:08.113Z,27.23
2018-08-18T02:10:40.394Z,30.77
2018-08-18T02:13:13.040Z,22.30
2018-08-18T02:15:46.293Z,24.90
2018-08-18T02:18:18.416Z,19.37
2018-08-18T02:20:50.768Z,16.20
2018-08-18T02:23:22.876Z,18.60
2018-08-18T02:25:55.348Z,19.00
2018-08-18T02:28:32.235Z,19.37
2018-08-18T02:31:04.470Z,18.17
2018-08-18T02:33:36.686Z,18.13
2018-08-18T02:36:08.963Z,17.43
2018-08-18T02:38:45.609Z,20.03
2018-08-18T02:41:17.718Z,27.10
2018-08-18T02:48:58.991Z,16.83
2018-08-18T02:51:31.720Z,17.37
2018-08-18T02:54:04.275Z,23.27
2018-08-18T02:56:44.064Z,24.77
2018-08-18T02:59:16.360Z,28.63
2018-08-18T03:01:48.645Z,20.87
2018-08-18T03:04:20.722Z,31.10
2018-08-18T03:06:53.600Z,24.23
2018-08-18T03:09:25.731Z,24.80
2018-08-18T03:21:59.818Z,23.53
2018-08-18T03:24:31.998Z,24.03
2018-08-18T03:27:04.368Z,23.07
2018-08-18T03:29:44.708Z,22.37
2018-08-18T03:32:17.593Z,22.57
2018-08-18T03:34:50.338Z,21.00
2018-08-18T03:37:30.409Z,21.97
2018-08-18T03:40:02.854Z,18.57
2018-08-18T03:42:41.804Z,18.10
2018-08-18T03:45:14.021Z,17.80
2018-08-18T03:47:47.250Z,16.23
2018-08-18T03:50:19.591Z,20.60
2018-08-18T03:52:51.744Z,24.03
2018-08-18T03:55:35.708Z,22.67
2018-08-18T03:58:08.256Z,25.37
2018-08-18T04:00:41.154Z,23.10
2018-08-18T04:03:13.381Z,21.47
2018-08-18T04:05:45.983Z,20.07
2018-08-18T04:08:18.402Z,18.53
2018-08-18T04:10:50.644Z,19.63
2018-08-18T04:13:22.900Z,24.03
2018-08-18T04:15:54.931Z,23.37
2018-08-18T04:18:27.131Z,21.60
2018-08-18T04:20:59.470Z,23.33
2018-08-18T04:23:31.593Z,24.03
2018-08-18T04:26:03.713Z,18.97
2018-08-18T04:28:39.906Z,16.30
2018-08-18T04:31:12.724Z,13.90
2018-08-18T04:33:45.168Z,11.93
2018-08-18T04:36:17.593Z,10.40
2018-08-18T04:38:49.861Z,9.77
2018-08-18T04:41:22.271Z,7.73
2018-08-18T04:43:54.556Z,7.73
2018-08-18T04:46:26.838Z,7.53
2018-08-18T04:48:59.456Z,7.63
2018-08-18T04:51:31.757Z,9.70
2018-08-18T04:54:04.863Z,11.73
2018-08-18T04:56:37.738Z,8.77
2018-08-18T04:59:10.136Z,9.53
2018-08-18T05:01:43.526Z,10.00
2018-08-18T05:04:15.519Z,10.90
2018-08-18T05:06:49.010Z,14.30
2018-08-18T05:09:21.065Z,10.03
2018-08-18T05:11:53.358Z,11.00
2018-08-18T05:14:25.437Z,12.07
2018-08-18T05:16:57.569Z,19.43
2018-08-18T05:19:29.510Z,13.20
2018-08-18T05:22:01.749Z,11.23
2018-08-18T05:24:34.633Z,14.90
2018-08-18T05:27:11.205Z,13.75
2018-08-18T05:29:43.930Z,16.20
2018-08-18T05:32:16.097Z,20.50
2018-08-18T05:34:48.353Z,21.83
2018-08-18T05:37:20.757Z,20.50
2018-08-18T05:39:53.142Z,19.60
2018-08-18T05:42:25.537Z,21.67
2018-08-18T05:44:57.823Z,19.30
2018-08-18T05:47:29.888Z,21.07
2018-08-18T05:50:03.552Z,18.80
2018-08-18T05:52:35.777Z,15.53
2018-08-18T05:55:07.955Z,14.83
2018-08-18T05:57:40.885Z,14.57
2018-08-18T06:00:17.523Z,14.87
2018-08-18T06:02:54.061Z,13.57
2018-08-18T06:05:28.373Z,12.43
2018-08-18T06:08:01.779Z,13.33
2018-08-18T06:10:34.254Z,13.50
2018-08-18T06:13:24.015Z,12.33
2018-08-18T06:16:09.589Z,13.87
2018-08-18T06:18:42.619Z,13.17
2018-08-18T06:21:14.791Z,12.40
2018-08-18T06:23:47.843Z,12.10
2018-08-18T06:26:20.124Z,10.60
2018-08-18T06:28:52.454Z,11.70
2018-08-18T06:31:24.800Z,11.30
2018-08-18T06:33:57.080Z,11.90
2018-08-18T06:36:29.372Z,14.00
2018-08-18T06:39:01.611Z,13.30
2018-08-18T06:41:33.696Z,12.33
2018-08-18T06:44:06.566Z,11.60
2018-08-18T06:46:38.887Z,10.40
2018-08-18T06:49:11.130Z,8.03
2018-08-18T06:51:43.557Z,7.67
2018-08-18T06:54:15.704Z,8.23
2018-08-18T06:56:47.846Z,8.27
2018-08-18T06:59:20.706Z,7.13
2018-08-18T07:01:52.903Z,7.07
2018-08-18T07:04:28.608Z,6.50
2018-08-18T07:07:00.793Z,7.30
2018-08-18T07:09:32.973Z,7.77
2018-08-18T07:12:05.040Z,6.53
2018-08-18T07:14:37.457Z,6.80
2018-08-18T07:17:09.640Z,6.30
2018-08-18T07:19:41.714Z,5.47
2018-08-18T07:22:18.978Z,4.97
2018-08-18T07:24:51.199Z,4.90
2018-08-18T07:27:23.505Z,4.43
2018-08-18T07:29:55.737Z,4.13
2018-08-18T07:32:30.135Z,3.93
2018-08-18T07:35:02.290Z,3.93
2018-08-18T07:37:35.077Z,4.07
2018-08-18T07:40:08.701Z,4.07
2018-08-18T07:42:41.160Z,4.07
2018-08-18T07:45:13.570Z,4.03
2018-08-18T07:47:45.763Z,4.30
2018-08-18T07:50:18.098Z,6.10
2018-08-18T07:52:50.348Z,5.87
2018-08-18T07:55:22.420Z,6.00
2018-08-18T07:57:59.213Z,7.17
2018-08-18T08:00:33.726Z,6.53
2018-08-18T08:03:06.363Z,5.70
2018-08-18T08:05:38.588Z,5.70
2018-08-18T08:08:11.215Z,5.70
2018-08-18T08:10:43.494Z,5.60
2018-08-18T08:13:16.853Z,4.87
2018-08-18T08:15:48.889Z,5.70
2018-08-18T08:18:21.394Z,4.97
2018-08-18T08:20:53.865Z,4.80
2018-08-18T08:23:26.332Z,4.43
2018-08-18T08:25:58.732Z,5.10
2018-08-18T08:28:30.844Z,4.83
2018-08-18T08:31:02.858Z,4.60
2018-08-18T08:33:40.646Z,4.37
2018-08-18T08:36:16.371Z,4.07
2018-08-18T08:38:58.911Z,4.67
2018-08-18T08:41:33.136Z,4.17
2018-08-18T08:44:05.569Z,3.93
2018-08-18T08:46:38.608Z,4.07
2018-08-18T08:49:11.119Z,4.40
2018-08-18T08:51:43.586Z,4.13
2018-08-18T08:54:15.947Z,3.95
2018-08-18T08:56:48.013Z,3.30
2018-08-18T08:59:20.171Z,4.10
2018-08-18T09:01:52.221Z,4.57
2018-08-18T09:04:24.476Z,3.60
2018-08-18T09:06:56.993Z,4.20
2018-08-18T09:09:29.375Z,4.50
2018-08-18T09:12:01.527Z,4.40
2018-08-18T09:14:35.631Z,5.13
2018-08-18T09:17:07.757Z,4.50
2018-08-18T09:19:39.981Z,3.80
2018-08-18T09:22:12.275Z,3.83
2018-08-18T09:24:44.603Z,4.33
2018-08-18T09:27:16.562Z,4.20
2018-08-18T09:29:49.532Z,4.23
2018-08-18T09:32:21.812Z,4.50
2018-08-18T09:35:27.387Z,4.40
2018-08-18T09:38:02.456Z,4.00
2018-08-18T09:40:34.952Z,4.70
2018-08-18T09:43:12.612Z,4.50
2018-08-18T09:45:44.728Z,4.17
2018-08-18T09:48:16.841Z,4.60
2018-08-18T09:50:49.535Z,4.10
2018-08-18T09:53:22.287Z,4.27
2018-08-18T09:55:54.855Z,5.17
2018-08-18T09:58:26.888Z,6.40
2018-08-18T10:00:58.810Z,14.63
2018-08-18T10:03:30.968Z,20.33
2018-08-18T10:06:03.029Z,26.45
2018-08-18T10:08:35.070Z,24.13
2018-08-18T10:11:07.638Z,16.47
2018-08-18T10:13:39.813Z,11.77
2018-08-18T10:16:13.275Z,11.73
2018-08-18T10:18:50.908Z,11.50
2018-08-18T10:21:23.196Z,8.97
2018-08-18T10:23:55.166Z,7.90
2018-08-18T10:26:27.638Z,7.60
2018-08-18T10:29:15.354Z,6.67
2018-08-18T10:31:51.638Z,6.90
2018-08-18T10:34:24.895Z,7.03
2018-08-18T10:37:05.451Z,6.80
2018-08-18T10:39:39.017Z,7.20
2018-08-18T10:42:14.061Z,8.10
2018-08-18T10:44:51.773Z,8.30
2018-08-18T10:47:25.325Z,8.30
2018-08-18T10:50:06.728Z,8.70
2018-08-18T10:52:48.268Z,7.67
2018-08-18T10:55:20.668Z,9.57
2018-08-18T10:58:05.103Z,9.67
2018-08-18T11:00:37.968Z,9.00
2018-08-18T11:03:10.682Z,9.17
2018-08-18T11:05:42.957Z,9.33
2018-08-18T11:08:15.280Z,9.00
2018-08-18T11:10:47.645Z,10.03
2018-08-18T11:13:19.706Z,10.20
2018-08-18T11:15:51.963Z,11.93
2018-08-18T11:18:26.046Z,11.70
2018-08-18T11:20:58.166Z,14.47
2018-08-18T11:23:30.485Z,15.50
2018-08-18T11:26:03.061Z,16.40
2018-08-18T11:28:35.307Z,15.53
2018-08-18T11:31:07.675Z,14.90
2018-08-18T11:33:44.860Z,15.83
2018-08-18T11:36:17.363Z,14.53
2018-08-18T11:38:49.938Z,13.43
2018-08-18T11:41:22.540Z,11.93
2018-08-18T11:43:55.284Z,12.50
2018-08-18T11:46:27.859Z,10.90
2018-08-18T11:48:59.949Z,10.70
2018-08-18T11:51:36.555Z,10.17
2018-08-18T11:54:09.170Z,11.63
2018-08-18T11:56:45.692Z,17.90
2018-08-18T11:59:18.625Z,24.33
2018-08-18T12:01:53.707Z,25.20
2018-08-18T12:04:26.173Z,23.10
2018-08-18T12:07:01.291Z,21.77
2018-08-18T12:09:33.565Z,20.90
2018-08-18T12:12:06.974Z,20.90
2018-08-18T12:14:39.647Z,21.80
2018-08-18T12:17:12.655Z,20.97
2018-08-18T12:19:46.675Z,20.53
2018-08-18T12:22:18.791Z,20.10
2018-08-18T12:24:55.254Z,18.87
2018-08-18T12:27:27.462Z,17.40
2018-08-18T12:30:01.656Z,17.67
2018-08-18T12:32:34.267Z,17.00
2018-08-18T12:35:06.502Z,17.97
2018-08-18T12:37:38.893Z,17.33
2018-08-18T12:40:14.646Z,18.83
2018-08-18T12:42:47.573Z,23.80
2018-08-18T12:45:19.896Z,16.57
2018-08-18T12:48:03.932Z,14.67
2018-08-18T12:50:35.963Z,15.90
2018-08-18T12:53:08.531Z,16.10
2018-08-18T12:55:41.974Z,16.93
2018-08-18T12:58:15.490Z,16.73
2018-08-18T13:01:21.461Z,18.50
2018-08-18T13:03:53.805Z,15.50
2018-08-18T13:06:27.915Z,18.73
2018-08-18T13:09:00.108Z,15.63
2018-08-18T13:11:32.678Z,15.87
2018-08-18T13:14:06.759Z,14.27
2018-08-18T13:16:39.471Z,17.30
2018-08-18T13:19:12.073Z,12.43
2018-08-18T13:21:44.733Z,11.37
2018-08-18T13:24:17.336Z,11.87
2018-08-18T13:26:50.044Z,10.50
2018-08-18T13:29:23.409Z,9.10
2018-08-18T13:31:56.347Z,10.20
2018-08-18T13:34:36.469Z,8.67
2018-08-18T13:37:09.019Z,8.93
2018-08-18T13:39:43.008Z,8.17
2018-08-18T13:42:24.511Z,9.00
2018-08-18T13:44:57.254Z,8.43
2018-08-18T13:47:30.058Z,7.83
2018-08-18T13:50:10.148Z,7.53
2018-08-18T13:52:47.025Z,9.27
2018-08-18T13:55:20.112Z,8.37
2018-08-18T13:57:52.652Z,8.60
2018-08-18T14:00:24.911Z,9.73
2018-08-18T14:02:57.610Z,8.60
2018-08-18T14:05:32.817Z,8.57
2018-08-18T14:08:06.280Z,7.60
2018-08-18T14:10:38.457Z,7.73
2018-08-18T14:13:10.840Z,6.20
2018-08-18T14:15:48.064Z,8.20
2018-08-18T14:18:20.555Z,8.00
2018-08-18T14:21:06.385Z,7.60
2018-08-18T14:23:38.885Z,8.03
2018-08-18T14:26:11.361Z,5.40
2018-08-18T14:28:43.634Z,6.00
2018-08-18T14:31:15.570Z,6.97
2018-08-18T14:33:47.988Z,5.23
2018-08-18T14:36:20.633Z,5.07
2018-08-18T14:38:52.970Z,6.73
2018-08-18T14:41:55.154Z,4.33
2018-08-18T14:44:28.712Z,4.70
2018-08-18T14:47:01.145Z,4.70
2018-08-18T14:49:33.443Z,3.33
2018-08-18T14:52:06.374Z,4.23
2018-08-18T14:54:39.922Z,4.10
2018-08-18T14:57:12.161Z,3.70
2018-08-18T14:59:44.299Z,3.97
2018-08-18T15:02:16.386Z,5.10
2018-08-18T15:04:49.033Z,8.43
2018-08-18T15:07:22.486Z,5.70
2018-08-18T15:09:54.726Z,6.73
2018-08-18T15:12:26.929Z,5.67
2018-08-18T15:14:59.197Z,6.03
2018-08-18T15:17:31.344Z,3.95
2018-08-18T15:20:03.754Z,4.30
2018-08-18T15:22:37.782Z,5.57
2018-08-18T15:25:10.221Z,4.10
2018-08-18T15:27:42.540Z,8.23
2018-08-18T15:30:15.449Z,5.60
2018-08-18T15:32:47.335Z,9.83
2018-08-18T15:35:20.207Z,9.33
2018-08-18T15:37:52.457Z,8.17
2018-08-18T15:40:25.400Z,7.23
2018-08-18T15:42:58.435Z,19.17
2018-08-18T15:45:31.521Z,6.93
2018-08-18T15:48:05.640Z,8.50
2018-08-18T15:50:53.423Z,6.10
2018-08-18T15:53:34.257Z,4.90
2018-08-18T15:56:07.808Z,5.20
2018-08-18T15:58:40.074Z,6.77
2018-08-18T16:01:12.309Z,5.00
2018-08-18T16:03:44.305Z,4.70
2018-08-18T16:06:16.981Z,7.50
2018-08-18T16:08:49.214Z,7.93
2018-08-18T16:11:22.610Z,7.67
2018-08-18T16:13:54.925Z,7.60
2018-08-18T16:16:27.106Z,7.33
2018-08-18T16:19:04.448Z,4.43
2018-08-18T16:21:37.438Z,6.40
2018-08-18T16:24:10.295Z,4.33
2018-08-18T16:26:42.732Z,8.00
2018-08-18T16:36:48.191Z,15.40
2018-08-18T16:39:20.596Z,10.90
2018-08-18T16:46:56.979Z,5.60
2018-08-18T16:49:29.119Z,5.30
2018-08-18T16:57:06.693Z,5.00
2018-08-18T17:02:20.174Z,7.80
2018-08-18T17:04:52.453Z,5.40
2018-08-18T17:07:28.156Z,3.80
2018-08-18T17:12:32.989Z,4.90
2018-08-18T17:17:35.867Z,3.90
2018-08-18T17:20:09.761Z,4.20
2018-08-18T17:22:43.275Z,4.10
2018-08-18T17:35:18.403Z,5.65
2018-08-18T17:42:51.824Z,9.30
2018-08-18T17:45:27.090Z,12.77
2018-08-18T17:47:59.749Z,7.00
2018-08-18T17:50:32.217Z,7.33
2018-08-18T17:53:04.491Z,3.00
2018-08-18T17:55:36.712Z,4.58
2018-08-18T17:58:08.816Z,6.95
2018-08-18T18:00:41.208Z,7.08
2018-08-18T18:03:13.617Z,5.80
2018-08-18T18:05:46.334Z,6.37
2018-08-18T18:08:20.071Z,4.05
2018-08-18T18:10:52.681Z,10.53
2018-08-18T18:13:28.593Z,4.47
2018-08-18T18:16:02.401Z,6.72
2018-08-18T18:18:38.965Z,5.45
2018-08-18T18:21:11.228Z,7.00
2018-08-18T18:23:44.978Z,5.50
2018-08-18T18:26:18.738Z,13.10
2018-08-18T18:28:51.260Z,4.75
2018-08-18T18:31:24.918Z,9.85
2018-08-18T18:34:02.134Z,5.12
2018-08-18T18:36:35.989Z,4.30
2018-08-18T18:39:09.032Z,3.80
2018-08-18T18:41:42.825Z,3.87
2018-08-18T18:44:15.048Z,6.20
2018-08-18T18:46:47.735Z,6.30
2018-08-18T18:49:29.751Z,32.40
2018-08-18T18:52:02.297Z,7.42
2018-08-18T18:54:34.609Z,7.65
2018-08-18T18:57:08.792Z,5.97
2018-08-18T19:00:00.899Z,6.00
2018-08-18T19:02:40.391Z,5.65
2018-08-18T19:05:21.441Z,6.55
2018-08-18T19:07:59.764Z,8.38
2018-08-18T19:10:32.583Z,5.55
2018-08-18T19:13:04.898Z,6.75
2018-08-18T19:15:37.227Z,4.28
2018-08-18T19:18:11.554Z,7.20
2018-08-18T19:20:44.634Z,6.22
2018-08-18T19:23:17.986Z,4.08
2018-08-18T19:25:51.766Z,7.33
2018-08-18T19:28:25.219Z,12.30
2018-08-18T19:30:57.696Z,5.50
2018-08-18T19:33:30.236Z,5.80
2018-08-18T19:36:02.548Z,9.73
2018-08-18T19:38:35.156Z,10.65
2018-08-18T19:41:08.444Z,10.10
2018-08-18T19:43:41.151Z,4.47
2018-08-18T19:46:14.244Z,3.85
2018-08-18T19:48:47.604Z,9.90
2018-08-18T19:51:19.839Z,5.50
2018-08-18T19:53:52.836Z,5.30
2018-08-18T19:56:25.851Z,3.95
2018-08-18T19:58:58.013Z,3.95
2018-08-18T20:01:31.073Z,3.60
2018-08-18T20:04:18.549Z,6.87
2018-08-18T20:06:50.952Z,3.50
2018-08-18T20:09:23.700Z,4.80
2018-08-18T20:11:56.026Z,4.60
2018-08-18T20:14:28.075Z,5.28
2018-08-18T20:17:01.991Z,5.05
2018-08-18T20:19:34.287Z,3.75
2018-08-18T20:22:07.502Z,16.48
2018-08-18T20:24:39.775Z,3.87
2018-08-18T20:27:12.559Z,4.37
2018-08-18T20:29:45.833Z,9.03
2018-08-18T20:32:18.807Z,6.12
2018-08-18T20:34:51.073Z,3.90
2018-08-18T20:37:23.285Z,3.17
2018-08-18T20:39:55.684Z,3.22
2018-08-18T20:42:32.884Z,4.10
2018-08-18T20:45:05.176Z,4.17
2018-08-18T20:47:39.053Z,3.33
2018-08-18T20:50:12.692Z,4.70
2018-08-18T20:52:45.275Z,4.22
2018-08-18T20:55:17.715Z,2.40
2018-08-18T21:04:19.241Z,3.25
2018-08-18T21:06:51.452Z,3.40
2018-08-18T21:09:33.317Z,3.45
2018-08-18T21:12:05.688Z,4.58
2018-08-18T21:14:39.504Z,4.80
2018-08-18T21:17:11.718Z,5.03
2018-08-18T21:19:46.442Z,7.97
2018-08-18T21:22:19.562Z,5.97
2018-08-18T21:24:52.132Z,3.08
2018-08-18T21:27:24.197Z,4.45
2018-08-18T21:29:58.263Z,3.70
2018-08-18T21:32:30.430Z,3.25
2018-08-18T21:35:04.485Z,4.87
2018-08-18T21:37:36.744Z,3.27
2018-08-18T21:40:10.538Z,4.58
2018-08-18T21:42:42.940Z,3.77
2018-08-18T21:45:15.709Z,4.33
2018-08-18T21:47:48.056Z,4.90
2018-08-18T21:50:20.308Z,2.62
2018-08-18T21:52:52.368Z,4.60
2018-08-18T21:55:24.680Z,2.60
2018-08-18T21:58:00.442Z,2.50
2018-08-18T22:00:37.492Z,3.12
2018-08-18T22:03:10.585Z,3.00
2018-08-18T22:05:42.629Z,4.05
2018-08-18T22:08:15.192Z,3.75
2018-08-18T22:10:51.018Z,3.98
2018-08-18T22:13:23.375Z,3.33
2018-08-18T22:15:55.606Z,3.62
2018-08-18T22:18:27.856Z,3.40
2018-08-18T22:21:00.109Z,4.30
2018-08-18T22:23:32.437Z,7.92
2018-08-18T22:26:08.890Z,3.52
2018-08-18T22:28:41.233Z,5.50
2018-08-18T22:31:14.071Z,3.50
2018-08-18T22:33:46.198Z,3.17
2018-08-18T22:36:18.561Z,4.67
2018-08-18T22:38:50.813Z,6.47
2018-08-18T22:41:23.175Z,5.58
2018-08-18T22:43:55.976Z,3.55
2018-08-18T22:46:28.870Z,2.92
2018-08-18T22:49:01.171Z,3.67
2018-08-18T22:51:33.601Z,5.50
2018-08-18T22:54:05.958Z,3.60
2018-08-18T22:56:39.615Z,3.43
2018-08-18T22:59:11.559Z,4.20
2018-08-18T23:01:43.791Z,3.80
2018-08-18T23:04:29.187Z,3.37
2018-08-18T23:07:02.593Z,3.97
2018-08-18T23:09:34.625Z,4.00
2018-08-18T23:12:08.391Z,3.47
2018-08-18T23:19:43.807Z,7.05
2018-08-18T23:22:25.256Z,6.30
2018-08-18T23:27:31.999Z,5.45
2018-08-18T23:30:04.274Z,5.60
2018-08-18T23:35:07.303Z,4.53
2018-08-18T23:40:10.930Z,7.20
2018-08-18T23:42:43.371Z,6.13
2018-08-18T23:45:15.642Z,4.03
2018-08-18T23:48:07.871Z,6.13
2018-08-18T23:50:41.757Z,6.40
2018-08-18T23:53:17.209Z,4.20
2018-08-18T23:55:56.147Z,4.50
2018-08-18T23:58:28.723Z,5.57
